»·PEaware :: N246AB KSBP-KPSP

N246AB :: KSBP-KPSP

FLIGHT INFORMATION

Flight Status: Arrived
Operator: Privately registered:
United States
More flights under this callsign
Pilot: Tommaso M. (17204)
Aircraft: Unknown
(SF50)
More flights by this aircraft type
Origin: KSBP San Luis Co Regl
United States
Destination: KPSP Palm Springs Intl
United States
More flights between these airports :: More routes between these airports
Route:
File this flight plan on PilotEdge
Remarks:
Altitude:
(Current/Filed)
20,000ft
Speed:
(Current/Filed)
210kts
Departed: 13-May-18 05:40 PM
Arrived: 13-May-18 07:02 PM
Distance/Time
Traveled:
222nm/1:22
Distance/Time
To Go:
Arrived

Flight Plot

Page will automatically refresh every two minutes.


Map Options




Map Legend


Flown Route
Filed Route
Departure Airport
Arrival Airport
Navaid (VOR, NDB)
Fix

Horizontal Profiles

Position Reports

Time Latitude Longitude Heading Altitude Ground
Speed
13-May-18 17:14 35.237808 -120.638568 263 197ft 0kts
13-May-18 17:15 35.237808 -120.638568 263 197ft 0kts
13-May-18 17:16 35.237808 -120.638568 263 197ft 0kts
13-May-18 17:17 35.237808 -120.638568 263 197ft 0kts
13-May-18 17:18 35.237808 -120.638568 263 197ft 0kts
13-May-18 17:19 35.237808 -120.638568 263 197ft 0kts
13-May-18 17:20 35.237808 -120.638568 263 197ft 0kts
13-May-18 17:21 35.237808 -120.638568 263 197ft 0kts
13-May-18 17:22 35.237808 -120.638568 263 197ft 0kts
13-May-18 17:23 35.237808 -120.638568 263 197ft 0kts
13-May-18 17:24 35.237808 -120.638568 263 197ft 0kts
13-May-18 17:25 35.237808 -120.638568 263 197ft 0kts
13-May-18 17:26 35.237808 -120.638568 263 197ft 0kts
13-May-18 17:27 35.237808 -120.638568 263 197ft 0kts
13-May-18 17:28 35.237808 -120.638568 263 197ft 0kts
13-May-18 17:29 35.237808 -120.638568 263 197ft 0kts
13-May-18 17:30 35.237808 -120.638568 263 197ft 0kts
13-May-18 17:31 35.237808 -120.638568 263 197ft 0kts
13-May-18 17:32 35.237808 -120.638568 263 197ft 0kts
13-May-18 17:33 35.237790 -120.638701 255 196ft 4kts
13-May-18 17:34 35.236557 -120.637756 125 200ft 7kts
13-May-18 17:35 35.235204 -120.635361 125 210ft 9kts
13-May-18 17:36 35.233857 -120.632983 125 213ft 8kts
13-May-18 17:37 35.233192 -120.632428 208 213ft 0kts
13-May-18 17:38 35.233192 -120.632428 208 213ft 0kts
13-May-18 17:39 35.233001 -120.632583 217 213ft 6kts
13-May-18 17:40 35.243707 -120.648061 308 968ft 119kts
13-May-18 17:41 35.263604 -120.686912 302 2518ft 192kts
13-May-18 17:42 35.291525 -120.740927 290 4153ft 206kts
13-May-18 17:43 35.257530 -120.753711 107 5876ft 193kts
13-May-18 17:44 35.249653 -120.691004 106 7712ft 208kts
13-May-18 17:45 35.232477 -120.624215 107 9409ft 244kts
13-May-18 17:46 35.213001 -120.549459 107 11089ft 255kts
13-May-18 17:47 35.192293 -120.470261 107 12803ft 258kts
13-May-18 17:48 35.170573 -120.387444 107 14586ft 258kts
13-May-18 17:49 35.150559 -120.311366 108 16222ft 258kts
13-May-18 17:50 35.131056 -120.237436 108 17810ft 258kts
13-May-18 17:51 35.109685 -120.156660 108 19549ft 255kts
13-May-18 17:52 35.086589 -120.069639 108 19905ft 287kts
13-May-18 17:53 35.061875 -119.976836 108 19898ft 287kts
13-May-18 17:54 35.037108 -119.884150 108 19899ft 286kts
13-May-18 17:55 35.012439 -119.792149 108 19899ft 286kts
13-May-18 17:56 34.987667 -119.700075 108 19899ft 286kts
13-May-18 17:57 34.962794 -119.607947 108 19899ft 286kts
13-May-18 17:58 34.937932 -119.516169 108 19899ft 286kts
13-May-18 17:59 34.912937 -119.424213 108 19899ft 286kts
13-May-18 18:00 34.888546 -119.334786 108 19899ft 286kts
13-May-18 18:01 34.863497 -119.243234 108 19899ft 286kts
13-May-18 18:02 34.838356 -119.151661 108 19899ft 286kts
13-May-18 18:03 34.813103 -119.059988 108 19899ft 286kts
13-May-18 18:04 34.787709 -118.968107 108 19899ft 286kts
13-May-18 18:05 34.762248 -118.876293 108 19899ft 286kts
13-May-18 18:06 34.736805 -118.784843 108 19899ft 286kts
13-May-18 18:07 34.711298 -118.693471 108 19899ft 286kts
13-May-18 18:08 34.685757 -118.602270 108 19899ft 286kts
13-May-18 18:09 34.660068 -118.510846 108 19901ft 286kts
13-May-18 18:10 34.634347 -118.419602 108 19898ft 286kts
13-May-18 18:11 34.610387 -118.334876 109 19899ft 286kts
13-May-18 18:12 34.592661 -118.272355 109 19900ft 286kts
13-May-18 18:13 34.571408 -118.197578 109 19899ft 286kts
13-May-18 18:14 34.546016 -118.108499 109 19899ft 286kts
13-May-18 18:15 34.523613 -118.030138 109 19898ft 286kts
13-May-18 18:16 34.500896 -117.950904 109 19899ft 286kts
13-May-18 18:17 34.477865 -117.870793 109 19898ft 286kts
13-May-18 18:18 34.454879 -117.791069 109 19773ft 284kts
13-May-18 18:19 34.430111 -117.705410 109 19283ft 276kts
13-May-18 18:20 34.409020 -117.632670 109 18863ft 273kts
13-May-18 18:21 34.384137 -117.547089 109 18536ft 267kts
13-May-18 18:22 34.360281 -117.465281 109 18243ft 265kts
13-May-18 18:23 34.338217 -117.389823 109 17973ft 264kts
13-May-18 18:24 34.316996 -117.317439 109 17714ft 264kts
13-May-18 18:25 34.294345 -117.240372 109 17439ft 263kts
13-May-18 18:26 34.270788 -117.160442 109 17153ft 263kts
13-May-18 18:27 34.246743 -117.079083 109 16728ft 268kts
13-May-18 18:28 34.221775 -116.994843 109 16149ft 272kts
13-May-18 18:29 34.197411 -116.912874 109 15443ft 262kts
13-May-18 18:30 34.173022 -116.831049 109 14643ft 258kts
13-May-18 18:31 34.148722 -116.749751 109 13844ft 257kts
13-May-18 18:32 34.124505 -116.668955 109 13047ft 256kts
13-May-18 18:33 34.100323 -116.588500 109 12252ft 255kts
13-May-18 18:34 34.076331 -116.508891 109 11450ft 249kts
13-May-18 18:35 34.053102 -116.432019 109 10996ft 231kts
13-May-18 18:36 34.031893 -116.362005 109 10997ft 217kts
13-May-18 18:37 34.011626 -116.295263 110 10944ft 215kts
13-May-18 18:38 33.990647 -116.226329 110 10654ft 220kts
13-May-18 18:39 33.969452 -116.156846 110 10360ft 222kts
13-May-18 18:40 33.947981 -116.086626 110 10063ft 223kts
13-May-18 18:41 33.926590 -116.016828 110 9766ft 223kts
13-May-18 18:42 33.899259 -115.951627 160 9403ft 225kts
13-May-18 18:43 33.868827 -115.998567 259 9097ft 224kts
13-May-18 18:44 33.841881 -116.062083 239 8559ft 231kts
13-May-18 18:45 33.814050 -116.117993 237 8060ft 233kts
13-May-18 18:46 33.768801 -116.149601 205 7492ft 204kts
13-May-18 18:47 33.728087 -116.172215 204 6851ft 194kts
13-May-18 18:48 33.692491 -116.202433 255 5936ft 190kts
13-May-18 18:49 33.686513 -116.246014 263 4987ft 171kts
13-May-18 18:50 33.682615 -116.286648 263 3833ft 162kts
13-May-18 18:51 33.678425 -116.331143 263 2991ft 126kts
13-May-18 18:52 33.678467 -116.364803 310 2886ft 112kts
13-May-18 18:53 33.695711 -116.383561 321 2893ft 100kts
13-May-18 18:54 33.712122 -116.399158 321 2860ft 93kts
13-May-18 18:55 33.728872 -116.415800 322 2377ft 99kts
13-May-18 18:56 33.745299 -116.431187 321 1927ft 94kts
13-May-18 18:57 33.760384 -116.445873 322 1550ft 88kts
13-May-18 18:58 33.775302 -116.459304 324 1330ft 91kts
13-May-18 18:59 33.790596 -116.473067 322 1151ft 97kts
13-May-18 19:00 33.806722 -116.487335 322 757ft 101kts
13-May-18 19:01 33.821580 -116.500465 324 425ft 78kts
13-May-18 19:02 33.825062 -116.503567 325 412ft 8kts
13-May-18 19:03 33.827220 -116.505496 324 419ft 16kts
13-May-18 19:04 33.829612 -116.507228 354 425ft 7kts
13-May-18 19:05 33.830171 -116.507236 0 426ft 0kts
13-May-18 19:06 33.830359 -116.507230 5 426ft 6kts
13-May-18 19:07 33.830852 -116.507004 96 427ft 1kts
13-May-18 19:08 33.829895 -116.506242 142 423ft 14kts
13-May-18 19:09 33.827186 -116.503824 144 416ft 14kts
13-May-18 19:10 33.824813 -116.501706 144 408ft 15kts
13-May-18 19:11 33.821812 -116.499036 144 399ft 19kts
13-May-18 19:12 33.819613 -116.496504 56 391ft 8kts
13-May-18 19:13 33.820654 -116.495608 329 391ft 4kts
13-May-18 19:14 33.821116 -116.496291 39 393ft 0kts

Navigation Log

Ident Type
1. KSBP Airport
2. KPSP Airport